sensor_id;sensor_type;location;lat;lon;timestamp;P1;durP1;ratioP1;P2;durP2;ratioP2
15595;SDS011;7898;48.658;9.068;2022-07-23T00:00:06;8.23;;;6.40;;
15595;SDS011;7898;48.658;9.068;2022-07-23T00:02:35;7.38;;;6.07;;
15595;SDS011;7898;48.658;9.068;2022-07-23T00:05:02;6.00;;;5.40;;
15595;SDS011;7898;48.658;9.068;2022-07-23T00:07:29;5.63;;;4.97;;
15595;SDS011;7898;48.658;9.068;2022-07-23T00:09:56;5.30;;;4.80;;
15595;SDS011;7898;48.658;9.068;2022-07-23T00:12:23;5.20;;;4.70;;
15595;SDS011;7898;48.658;9.068;2022-07-23T00:14:50;5.07;;;4.43;;
15595;SDS011;7898;48.658;9.068;2022-07-23T00:17:17;7.50;;;4.53;;
15595;SDS011;7898;48.658;9.068;2022-07-23T00:19:46;4.90;;;4.40;;
15595;SDS011;7898;48.658;9.068;2022-07-23T00:22:13;5.45;;;4.75;;
15595;SDS011;7898;48.658;9.068;2022-07-23T00:24:40;6.45;;;4.88;;
15595;SDS011;7898;48.658;9.068;2022-07-23T00:27:07;7.20;;;5.20;;
15595;SDS011;7898;48.658;9.068;2022-07-23T00:29:34;5.40;;;4.35;;
15595;SDS011;7898;48.658;9.068;2022-07-23T00:32:00;5.32;;;4.63;;
15595;SDS011;7898;48.658;9.068;2022-07-23T00:34:27;5.18;;;4.65;;
15595;SDS011;7898;48.658;9.068;2022-07-23T00:36:56;6.15;;;4.85;;
15595;SDS011;7898;48.658;9.068;2022-07-23T00:39:22;6.40;;;5.15;;
15595;SDS011;7898;48.658;9.068;2022-07-23T00:41:50;4.72;;;4.30;;
15595;SDS011;7898;48.658;9.068;2022-07-23T00:44:18;5.63;;;4.40;;
15595;SDS011;7898;48.658;9.068;2022-07-23T00:46:47;6.65;;;4.43;;
15595;SDS011;7898;48.658;9.068;2022-07-23T00:49:18;4.78;;;4.22;;
15595;SDS011;7898;48.658;9.068;2022-07-23T00:51:46;5.00;;;4.38;;
15595;SDS011;7898;48.658;9.068;2022-07-23T00:54:15;4.78;;;4.35;;
15595;SDS011;7898;48.658;9.068;2022-07-23T00:56:43;4.88;;;4.43;;
15595;SDS011;7898;48.658;9.068;2022-07-23T00:59:10;6.82;;;4.07;;
15595;SDS011;7898;48.658;9.068;2022-07-23T01:01:38;5.43;;;4.13;;
15595;SDS011;7898;48.658;9.068;2022-07-23T01:04:05;4.80;;;4.07;;
15595;SDS011;7898;48.658;9.068;2022-07-23T01:06:33;5.93;;;4.32;;
15595;SDS011;7898;48.658;9.068;2022-07-23T01:09:02;5.40;;;4.20;;
15595;SDS011;7898;48.658;9.068;2022-07-23T01:11:31;4.60;;;4.20;;
15595;SDS011;7898;48.658;9.068;2022-07-23T01:13:58;5.70;;;4.30;;
15595;SDS011;7898;48.658;9.068;2022-07-23T01:16:25;5.13;;;4.07;;
15595;SDS011;7898;48.658;9.068;2022-07-23T01:18:51;5.93;;;4.63;;
15595;SDS011;7898;48.658;9.068;2022-07-23T01:21:18;6.45;;;4.68;;
15595;SDS011;7898;48.658;9.068;2022-07-23T01:23:47;5.03;;;4.40;;
15595;SDS011;7898;48.658;9.068;2022-07-23T01:26:14;7.43;;;4.68;;
15595;SDS011;7898;48.658;9.068;2022-07-23T01:28:42;5.82;;;4.78;;
15595;SDS011;7898;48.658;9.068;2022-07-23T01:31:09;5.22;;;4.70;;
15595;SDS011;7898;48.658;9.068;2022-07-23T01:33:36;5.82;;;5.22;;
15595;SDS011;7898;48.658;9.068;2022-07-23T01:36:03;5.68;;;5.00;;
15595;SDS011;7898;48.658;9.068;2022-07-23T01:38:30;5.60;;;4.95;;
15595;SDS011;7898;48.658;9.068;2022-07-23T01:40:58;5.25;;;4.75;;
15595;SDS011;7898;48.658;9.068;2022-07-23T01:43:25;5.75;;;5.20;;
15595;SDS011;7898;48.658;9.068;2022-07-23T01:45:52;5.75;;;5.25;;
15595;SDS011;7898;48.658;9.068;2022-07-23T01:48:19;5.47;;;4.60;;
15595;SDS011;7898;48.658;9.068;2022-07-23T01:50:46;5.18;;;4.60;;
15595;SDS011;7898;48.658;9.068;2022-07-23T01:53:13;6.63;;;5.18;;
15595;SDS011;7898;48.658;9.068;2022-07-23T01:55:40;5.32;;;4.75;;
15595;SDS011;7898;48.658;9.068;2022-07-23T01:58:09;5.18;;;4.60;;
15595;SDS011;7898;48.658;9.068;2022-07-23T02:00:36;6.32;;;5.05;;
15595;SDS011;7898;48.658;9.068;2022-07-23T02:03:03;6.38;;;5.45;;
15595;SDS011;7898;48.658;9.068;2022-07-23T02:05:30;5.88;;;5.38;;
15595;SDS011;7898;48.658;9.068;2022-07-23T02:07:57;7.13;;;5.68;;
15595;SDS011;7898;48.658;9.068;2022-07-23T02:10:25;5.85;;;5.15;;
15595;SDS011;7898;48.658;9.068;2022-07-23T02:12:52;6.70;;;4.68;;
15595;SDS011;7898;48.658;9.068;2022-07-23T02:15:20;6.07;;;4.88;;
15595;SDS011;7898;48.658;9.068;2022-07-23T02:17:47;5.63;;;5.07;;
15595;SDS011;7898;48.658;9.068;2022-07-23T02:20:14;5.70;;;5.10;;
15595;SDS011;7898;48.658;9.068;2022-07-23T02:22:41;5.82;;;5.32;;
15595;SDS011;7898;48.658;9.068;2022-07-23T02:25:08;6.22;;;5.63;;
15595;SDS011;7898;48.658;9.068;2022-07-23T02:27:35;5.50;;;5.00;;
15595;SDS011;7898;48.658;9.068;2022-07-23T02:30:03;6.03;;;5.43;;
15595;SDS011;7898;48.658;9.068;2022-07-23T02:32:32;9.15;;;5.32;;
15595;SDS011;7898;48.658;9.068;2022-07-23T02:34:59;7.18;;;5.35;;
15595;SDS011;7898;48.658;9.068;2022-07-23T02:37:26;7.55;;;5.35;;
15595;SDS011;7898;48.658;9.068;2022-07-23T02:39:53;6.90;;;5.55;;
15595;SDS011;7898;48.658;9.068;2022-07-23T02:42:20;6.07;;;5.18;;
15595;SDS011;7898;48.658;9.068;2022-07-23T02:44:48;8.68;;;5.07;;
15595;SDS011;7898;48.658;9.068;2022-07-23T02:47:15;6.07;;;5.28;;
15595;SDS011;7898;48.658;9.068;2022-07-23T02:49:43;5.68;;;4.95;;
15595;SDS011;7898;48.658;9.068;2022-07-23T02:52:10;6.68;;;5.15;;
15595;SDS011;7898;48.658;9.068;2022-07-23T02:54:37;5.80;;;5.30;;
15595;SDS011;7898;48.658;9.068;2022-07-23T02:57:04;6.70;;;5.35;;
15595;SDS011;7898;48.658;9.068;2022-07-23T02:59:31;6.30;;;5.70;;
15595;SDS011;7898;48.658;9.068;2022-07-23T03:01:58;5.90;;;5.30;;
15595;SDS011;7898;48.658;9.068;2022-07-23T03:04:25;7.35;;;5.28;;
15595;SDS011;7898;48.658;9.068;2022-07-23T03:06:53;6.18;;;5.15;;
15595;SDS011;7898;48.658;9.068;2022-07-23T03:09:20;5.90;;;5.30;;
15595;SDS011;7898;48.658;9.068;2022-07-23T03:11:47;5.80;;;5.28;;
15595;SDS011;7898;48.658;9.068;2022-07-23T03:14:14;5.88;;;5.05;;
15595;SDS011;7898;48.658;9.068;2022-07-23T03:16:41;5.75;;;5.28;;
15595;SDS011;7898;48.658;9.068;2022-07-23T03:19:08;6.40;;;5.72;;
15595;SDS011;7898;48.658;9.068;2022-07-23T03:21:35;6.15;;;5.55;;
15595;SDS011;7898;48.658;9.068;2022-07-23T03:24:06;7.28;;;5.63;;
15595;SDS011;7898;48.658;9.068;2022-07-23T03:26:34;5.85;;;5.07;;
15595;SDS011;7898;48.658;9.068;2022-07-23T03:29:01;7.30;;;5.07;;
15595;SDS011;7898;48.658;9.068;2022-07-23T03:31:28;7.20;;;5.90;;
15595;SDS011;7898;48.658;9.068;2022-07-23T03:33:56;6.65;;;5.93;;
15595;SDS011;7898;48.658;9.068;2022-07-23T03:36:23;5.90;;;5.40;;
15595;SDS011;7898;48.658;9.068;2022-07-23T03:38:50;5.82;;;5.28;;
15595;SDS011;7898;48.658;9.068;2022-07-23T03:41:19;6.00;;;5.47;;
15595;SDS011;7898;48.658;9.068;2022-07-23T03:43:46;6.72;;;5.65;;
15595;SDS011;7898;48.658;9.068;2022-07-23T03:46:13;6.45;;;5.57;;
15595;SDS011;7898;48.658;9.068;2022-07-23T03:48:40;6.85;;;5.90;;
15595;SDS011;7898;48.658;9.068;2022-07-23T03:51:07;7.07;;;5.88;;
15595;SDS011;7898;48.658;9.068;2022-07-23T03:53:34;7.05;;;6.07;;
15595;SDS011;7898;48.658;9.068;2022-07-23T03:56:01;5.80;;;5.20;;
15595;SDS011;7898;48.658;9.068;2022-07-23T03:58:29;6.90;;;5.68;;
15595;SDS011;7898;48.658;9.068;2022-07-23T04:00:56;9.40;;;5.85;;
15595;SDS011;7898;48.658;9.068;2022-07-23T04:03:23;7.13;;;5.55;;
15595;SDS011;7898;48.658;9.068;2022-07-23T04:05:50;6.38;;;5.60;;
15595;SDS011;7898;48.658;9.068;2022-07-23T04:08:16;6.47;;;5.65;;
15595;SDS011;7898;48.658;9.068;2022-07-23T04:10:43;10.50;;;5.68;;
15595;SDS011;7898;48.658;9.068;2022-07-23T04:13:10;7.82;;;6.40;;
15595;SDS011;7898;48.658;9.068;2022-07-23T04:15:38;7.20;;;6.50;;
15595;SDS011;7898;48.658;9.068;2022-07-23T04:18:05;7.95;;;6.53;;
15595;SDS011;7898;48.658;9.068;2022-07-23T04:20:33;7.05;;;5.88;;
15595;SDS011;7898;48.658;9.068;2022-07-23T04:22:59;7.70;;;5.97;;
15595;SDS011;7898;48.658;9.068;2022-07-23T04:25:26;8.50;;;6.50;;
15595;SDS011;7898;48.658;9.068;2022-07-23T04:27:53;7.53;;;6.82;;
15595;SDS011;7898;48.658;9.068;2022-07-23T04:30:20;6.75;;;6.15;;
15595;SDS011;7898;48.658;9.068;2022-07-23T04:32:49;7.38;;;6.05;;
15595;SDS011;7898;48.658;9.068;2022-07-23T04:35:15;7.63;;;6.07;;
15595;SDS011;7898;48.658;9.068;2022-07-23T04:37:42;8.25;;;5.97;;
15595;SDS011;7898;48.658;9.068;2022-07-23T04:40:10;6.28;;;5.72;;
15595;SDS011;7898;48.658;9.068;2022-07-23T04:42:38;8.57;;;6.47;;
15595;SDS011;7898;48.658;9.068;2022-07-23T04:45:05;6.53;;;5.82;;
15595;SDS011;7898;48.658;9.068;2022-07-23T04:47:33;9.07;;;6.40;;
15595;SDS011;7898;48.658;9.068;2022-07-23T04:50:01;7.45;;;6.25;;
15595;SDS011;7898;48.658;9.068;2022-07-23T04:52:28;6.47;;;5.88;;
15595;SDS011;7898;48.658;9.068;2022-07-23T04:54:55;7.60;;;6.45;;
15595;SDS011;7898;48.658;9.068;2022-07-23T04:57:22;6.70;;;6.03;;
15595;SDS011;7898;48.658;9.068;2022-07-23T04:59:49;7.25;;;6.55;;
15595;SDS011;7898;48.658;9.068;2022-07-23T05:02:16;6.90;;;6.20;;
15595;SDS011;7898;48.658;9.068;2022-07-23T05:04:43;7.20;;;6.50;;
15595;SDS011;7898;48.658;9.068;2022-07-23T05:07:11;8.38;;;6.55;;
15595;SDS011;7898;48.658;9.068;2022-07-23T05:09:38;6.68;;;5.90;;
15595;SDS011;7898;48.658;9.068;2022-07-23T05:12:05;7.50;;;6.13;;
15595;SDS011;7898;48.658;9.068;2022-07-23T05:14:32;7.32;;;6.43;;
15595;SDS011;7898;48.658;9.068;2022-07-23T05:16:59;6.95;;;6.25;;
15595;SDS011;7898;48.658;9.068;2022-07-23T05:19:26;6.53;;;5.93;;
15595;SDS011;7898;48.658;9.068;2022-07-23T05:21:53;7.05;;;6.45;;
15595;SDS011;7898;48.658;9.068;2022-07-23T05:24:21;7.10;;;6.43;;
15595;SDS011;7898;48.658;9.068;2022-07-23T05:26:49;7.75;;;6.63;;
15595;SDS011;7898;48.658;9.068;2022-07-23T05:29:16;8.20;;;6.15;;
15595;SDS011;7898;48.658;9.068;2022-07-23T05:31:43;7.47;;;6.78;;
15595;SDS011;7898;48.658;9.068;2022-07-23T05:34:10;8.80;;;6.82;;
15595;SDS011;7898;48.658;9.068;2022-07-23T05:36:37;7.55;;;6.85;;
15595;SDS011;7898;48.658;9.068;2022-07-23T05:39:04;7.43;;;6.55;;
15595;SDS011;7898;48.658;9.068;2022-07-23T05:41:32;7.10;;;6.40;;
15595;SDS011;7898;48.658;9.068;2022-07-23T05:43:59;7.43;;;6.72;;
15595;SDS011;7898;48.658;9.068;2022-07-23T05:46:26;7.80;;;7.00;;
15595;SDS011;7898;48.658;9.068;2022-07-23T05:48:53;8.25;;;6.80;;
15595;SDS011;7898;48.658;9.068;2022-07-23T05:51:20;7.40;;;6.78;;
15595;SDS011;7898;48.658;9.068;2022-07-23T05:53:47;10.15;;;7.18;;
15595;SDS011;7898;48.658;9.068;2022-07-23T05:56:14;8.18;;;7.18;;
15595;SDS011;7898;48.658;9.068;2022-07-23T05:58:42;7.60;;;6.97;;
15595;SDS011;7898;48.658;9.068;2022-07-23T06:01:10;9.55;;;6.93;;
15595;SDS011;7898;48.658;9.068;2022-07-23T06:03:37;8.55;;;7.03;;
15595;SDS011;7898;48.658;9.068;2022-07-23T06:06:05;8.15;;;6.78;;
15595;SDS011;7898;48.658;9.068;2022-07-23T06:08:32;7.20;;;6.60;;
15595;SDS011;7898;48.658;9.068;2022-07-23T06:10:59;7.30;;;6.68;;
15595;SDS011;7898;48.658;9.068;2022-07-23T06:13:26;7.57;;;6.80;;
15595;SDS011;7898;48.658;9.068;2022-07-23T06:15:54;8.75;;;6.93;;
15595;SDS011;7898;48.658;9.068;2022-07-23T06:18:21;7.80;;;7.00;;
15595;SDS011;7898;48.658;9.068;2022-07-23T06:20:48;7.72;;;6.82;;
15595;SDS011;7898;48.658;9.068;2022-07-23T06:23:15;9.32;;;7.47;;
15595;SDS011;7898;48.658;9.068;2022-07-23T06:25:42;7.78;;;7.10;;
15595;SDS011;7898;48.658;9.068;2022-07-23T06:28:08;8.32;;;7.50;;
15595;SDS011;7898;48.658;9.068;2022-07-23T06:30:35;8.13;;;7.32;;
15595;SDS011;7898;48.658;9.068;2022-07-23T06:33:04;8.30;;;7.50;;
15595;SDS011;7898;48.658;9.068;2022-07-23T06:35:31;8.38;;;7.57;;
15595;SDS011;7898;48.658;9.068;2022-07-23T06:37:58;8.65;;;7.60;;
15595;SDS011;7898;48.658;9.068;2022-07-23T06:40:25;8.30;;;7.50;;
15595;SDS011;7898;48.658;9.068;2022-07-23T06:42:52;8.70;;;7.90;;
15595;SDS011;7898;48.658;9.068;2022-07-23T06:45:19;8.30;;;7.43;;
15595;SDS011;7898;48.658;9.068;2022-07-23T06:47:46;8.65;;;7.72;;
15595;SDS011;7898;48.658;9.068;2022-07-23T06:50:14;8.68;;;7.97;;
15595;SDS011;7898;48.658;9.068;2022-07-23T06:52:41;9.07;;;8.20;;
15595;SDS011;7898;48.658;9.068;2022-07-23T06:55:08;9.35;;;8.45;;
15595;SDS011;7898;48.658;9.068;2022-07-23T06:57:35;8.70;;;7.90;;
15595;SDS011;7898;48.658;9.068;2022-07-23T07:00:02;8.98;;;8.18;;
15595;SDS011;7898;48.658;9.068;2022-07-23T07:02:30;9.10;;;8.30;;
15595;SDS011;7898;48.658;9.068;2022-07-23T07:04:57;11.27;;;8.20;;
15595;SDS011;7898;48.658;9.068;2022-07-23T07:07:26;9.48;;;8.25;;
15595;SDS011;7898;48.658;9.068;2022-07-23T07:09:52;9.38;;;8.48;;
15595;SDS011;7898;48.658;9.068;2022-07-23T07:12:19;8.30;;;7.57;;
15595;SDS011;7898;48.658;9.068;2022-07-23T07:14:46;9.43;;;8.40;;
15595;SDS011;7898;48.658;9.068;2022-07-23T07:17:13;8.82;;;7.93;;
15595;SDS011;7898;48.658;9.068;2022-07-23T07:19:41;8.25;;;7.45;;
15595;SDS011;7898;48.658;9.068;2022-07-23T07:22:08;8.60;;;7.85;;
15595;SDS011;7898;48.658;9.068;2022-07-23T07:24:36;8.30;;;7.15;;
15595;SDS011;7898;48.658;9.068;2022-07-23T07:27:03;8.57;;;7.78;;
15595;SDS011;7898;48.658;9.068;2022-07-23T07:29:30;7.90;;;7.10;;
15595;SDS011;7898;48.658;9.068;2022-07-23T07:31:57;8.00;;;7.20;;
15595;SDS011;7898;48.658;9.068;2022-07-23T07:34:24;8.15;;;7.20;;
15595;SDS011;7898;48.658;9.068;2022-07-23T07:36:50;8.32;;;6.80;;
15595;SDS011;7898;48.658;9.068;2022-07-23T07:39:17;7.70;;;6.90;;
15595;SDS011;7898;48.658;9.068;2022-07-23T07:41:45;7.82;;;6.35;;
15595;SDS011;7898;48.658;9.068;2022-07-23T07:44:12;7.63;;;6.88;;
15595;SDS011;7898;48.658;9.068;2022-07-23T07:46:39;7.28;;;6.68;;
15595;SDS011;7898;48.658;9.068;2022-07-23T07:49:06;7.45;;;6.75;;
15595;SDS011;7898;48.658;9.068;2022-07-23T07:51:33;8.43;;;7.63;;
15595;SDS011;7898;48.658;9.068;2022-07-23T07:54:00;7.65;;;6.95;;
15595;SDS011;7898;48.658;9.068;2022-07-23T07:56:27;7.55;;;6.88;;
15595;SDS011;7898;48.658;9.068;2022-07-23T07:58:55;7.70;;;6.88;;
15595;SDS011;7898;48.658;9.068;2022-07-23T08:01:23;8.02;;;7.20;;
15595;SDS011;7898;48.658;9.068;2022-07-23T08:03:50;6.70;;;6.10;;
15595;SDS011;7898;48.658;9.068;2022-07-23T08:06:17;7.35;;;6.75;;
15595;SDS011;7898;48.658;9.068;2022-07-23T08:08:44;6.85;;;6.25;;
15595;SDS011;7898;48.658;9.068;2022-07-23T08:11:11;10.85;;;6.82;;
15595;SDS011;7898;48.658;9.068;2022-07-23T08:13:38;7.38;;;6.68;;
15595;SDS011;7898;48.658;9.068;2022-07-23T08:16:06;7.32;;;6.72;;
15595;SDS011;7898;48.658;9.068;2022-07-23T08:18:33;7.75;;;7.05;;
15595;SDS011;7898;48.658;9.068;2022-07-23T08:21:00;7.72;;;6.93;;
15595;SDS011;7898;48.658;9.068;2022-07-23T08:23:27;7.60;;;6.80;;
15595;SDS011;7898;48.658;9.068;2022-07-23T08:25:54;7.60;;;6.93;;
15595;SDS011;7898;48.658;9.068;2022-07-23T08:28:22;7.85;;;7.13;;
15595;SDS011;7898;48.658;9.068;2022-07-23T08:30:49;8.00;;;7.25;;
15595;SDS011;7898;48.658;9.068;2022-07-23T08:33:17;8.10;;;7.28;;
15595;SDS011;7898;48.658;9.068;2022-07-23T08:35:45;7.35;;;6.75;;
15595;SDS011;7898;48.658;9.068;2022-07-23T08:38:15;7.63;;;6.93;;
15595;SDS011;7898;48.658;9.068;2022-07-23T08:40:44;7.53;;;6.93;;
15595;SDS011;7898;48.658;9.068;2022-07-23T08:43:13;8.68;;;6.75;;
15595;SDS011;7898;48.658;9.068;2022-07-23T08:45:42;7.32;;;6.72;;
15595;SDS011;7898;48.658;9.068;2022-07-23T08:48:11;7.80;;;7.10;;
15595;SDS011;7898;48.658;9.068;2022-07-23T08:50:42;8.68;;;7.07;;
15595;SDS011;7898;48.658;9.068;2022-07-23T08:53:10;7.43;;;6.72;;
15595;SDS011;7898;48.658;9.068;2022-07-23T08:55:37;7.53;;;6.90;;
15595;SDS011;7898;48.658;9.068;2022-07-23T08:58:04;8.38;;;7.38;;
15595;SDS011;7898;48.658;9.068;2022-07-23T09:00:32;8.00;;;7.22;;
15595;SDS011;7898;48.658;9.068;2022-07-23T09:02:59;8.00;;;7.25;;
15595;SDS011;7898;48.658;9.068;2022-07-23T09:05:26;7.85;;;7.05;;
15595;SDS011;7898;48.658;9.068;2022-07-23T09:08:08;7.80;;;7.00;;
15595;SDS011;7898;48.658;9.068;2022-07-23T09:10:50;7.55;;;6.78;;
15595;SDS011;7898;48.658;9.068;2022-07-23T09:13:26;7.70;;;7.00;;
15595;SDS011;7898;48.658;9.068;2022-07-23T09:15:55;8.52;;;7.38;;
15595;SDS011;7898;48.658;9.068;2022-07-23T09:18:37;7.90;;;7.10;;
15595;SDS011;7898;48.658;9.068;2022-07-23T09:21:10;9.27;;;6.93;;
15595;SDS011;7898;48.658;9.068;2022-07-23T09:23:47;7.97;;;7.10;;
15595;SDS011;7898;48.658;9.068;2022-07-23T09:26:17;9.07;;;7.20;;
15595;SDS011;7898;48.658;9.068;2022-07-23T09:28:56;7.65;;;6.85;;
15595;SDS011;7898;48.658;9.068;2022-07-23T09:31:25;8.02;;;7.22;;
15595;SDS011;7898;48.658;9.068;2022-07-23T09:34:05;7.75;;;7.05;;
15595;SDS011;7898;48.658;9.068;2022-07-23T09:36:34;8.48;;;7.65;;
15595;SDS011;7898;48.658;9.068;2022-07-23T09:39:02;8.70;;;7.55;;
15595;SDS011;7898;48.658;9.068;2022-07-23T09:41:33;9.10;;;8.20;;
15595;SDS011;7898;48.658;9.068;2022-07-23T09:44:06;8.43;;;7.63;;
15595;SDS011;7898;48.658;9.068;2022-07-23T09:46:38;8.45;;;7.60;;
15595;SDS011;7898;48.658;9.068;2022-07-23T09:49:13;9.65;;;8.70;;
15595;SDS011;7898;48.658;9.068;2022-07-23T09:51:47;9.18;;;8.10;;
15595;SDS011;7898;48.658;9.068;2022-07-23T09:54:26;8.63;;;7.88;;
15595;SDS011;7898;48.658;9.068;2022-07-23T09:57:00;10.15;;;9.02;;
15595;SDS011;7898;48.658;9.068;2022-07-23T09:59:30;9.13;;;8.23;;
15595;SDS011;7898;48.658;9.068;2022-07-23T10:01:58;9.27;;;8.30;;
15595;SDS011;7898;48.658;9.068;2022-07-23T10:04:26;8.88;;;8.18;;
15595;SDS011;7898;48.658;9.068;2022-07-23T10:06:54;8.60;;;7.75;;
15595;SDS011;7898;48.658;9.068;2022-07-23T10:09:23;9.27;;;7.82;;
15595;SDS011;7898;48.658;9.068;2022-07-23T10:11:55;9.05;;;8.15;;
15595;SDS011;7898;48.658;9.068;2022-07-23T10:14:30;9.00;;;8.20;;
15595;SDS011;7898;48.658;9.068;2022-07-23T10:16:59;8.73;;;7.90;;
15595;SDS011;7898;48.658;9.068;2022-07-23T10:19:27;9.48;;;8.57;;
15595;SDS011;7898;48.658;9.068;2022-07-23T10:21:55;11.32;;;8.27;;
15595;SDS011;7898;48.658;9.068;2022-07-23T10:24:35;8.88;;;7.95;;
15595;SDS011;7898;48.658;9.068;2022-07-23T10:30:26;8.65;;;7.75;;
15595;SDS011;7898;48.658;9.068;2022-07-23T10:33:01;8.90;;;8.00;;
15595;SDS011;7898;48.658;9.068;2022-07-23T10:35:43;8.80;;;7.90;;
15595;SDS011;7898;48.658;9.068;2022-07-23T10:38:18;8.82;;;8.00;;
15595;SDS011;7898;48.658;9.068;2022-07-23T10:40:56;9.18;;;8.27;;
15595;SDS011;7898;48.658;9.068;2022-07-23T10:43:27;8.50;;;7.80;;
15595;SDS011;7898;48.658;9.068;2022-07-23T10:45:55;9.55;;;8.55;;
15595;SDS011;7898;48.658;9.068;2022-07-23T10:48:42;9.13;;;8.27;;
15595;SDS011;7898;48.658;9.068;2022-07-23T10:51:10;7.85;;;7.22;;
15595;SDS011;7898;48.658;9.068;2022-07-23T10:53:54;8.40;;;7.70;;
15595;SDS011;7898;48.658;9.068;2022-07-23T10:59:28;9.15;;;8.15;;
15595;SDS011;7898;48.658;9.068;2022-07-23T11:02:00;8.38;;;7.50;;
15595;SDS011;7898;48.658;9.068;2022-07-23T11:04:47;8.27;;;7.35;;
15595;SDS011;7898;48.658;9.068;2022-07-23T11:07:15;8.93;;;8.13;;
15595;SDS011;7898;48.658;9.068;2022-07-23T11:09:42;7.88;;;7.13;;
15595;SDS011;7898;48.658;9.068;2022-07-23T11:12:31;9.40;;;7.22;;
15595;SDS011;7898;48.658;9.068;2022-07-23T11:15:05;7.93;;;7.22;;
15595;SDS011;7898;48.658;9.068;2022-07-23T11:17:35;7.68;;;6.95;;
15595;SDS011;7898;48.658;9.068;2022-07-23T11:20:12;7.68;;;6.97;;
15595;SDS011;7898;48.658;9.068;2022-07-23T11:22:46;7.30;;;6.55;;
15595;SDS011;7898;48.658;9.068;2022-07-23T11:25:28;7.05;;;6.45;;
15595;SDS011;7898;48.658;9.068;2022-07-23T11:28:07;7.20;;;6.60;;
15595;SDS011;7898;48.658;9.068;2022-07-23T11:30:40;7.75;;;7.05;;
15595;SDS011;7898;48.658;9.068;2022-07-23T11:33:21;7.10;;;6.38;;
15595;SDS011;7898;48.658;9.068;2022-07-23T11:36:01;7.63;;;7.03;;
15595;SDS011;7898;48.658;9.068;2022-07-23T11:38:30;7.60;;;6.65;;
15595;SDS011;7898;48.658;9.068;2022-07-23T11:40:58;7.63;;;7.03;;
15595;SDS011;7898;48.658;9.068;2022-07-23T11:43:25;7.07;;;6.45;;
15595;SDS011;7898;48.658;9.068;2022-07-23T11:45:56;7.95;;;7.25;;
15595;SDS011;7898;48.658;9.068;2022-07-23T11:48:26;7.93;;;7.18;;
15595;SDS011;7898;48.658;9.068;2022-07-23T11:50:54;7.05;;;6.35;;
15595;SDS011;7898;48.658;9.068;2022-07-23T11:53:22;7.43;;;6.72;;
15595;SDS011;7898;48.658;9.068;2022-07-23T11:55:50;7.40;;;6.80;;
15595;SDS011;7898;48.658;9.068;2022-07-23T11:58:17;8.20;;;7.03;;
15595;SDS011;7898;48.658;9.068;2022-07-23T12:00:45;7.40;;;6.80;;
15595;SDS011;7898;48.658;9.068;2022-07-23T12:03:13;7.18;;;6.57;;
15595;SDS011;7898;48.658;9.068;2022-07-23T12:05:40;7.70;;;6.60;;
15595;SDS011;7898;48.658;9.068;2022-07-23T12:08:08;8.23;;;6.82;;
15595;SDS011;7898;48.658;9.068;2022-07-23T12:10:37;7.60;;;6.95;;
15595;SDS011;7898;48.658;9.068;2022-07-23T12:13:07;7.88;;;7.07;;
15595;SDS011;7898;48.658;9.068;2022-07-23T12:15:38;7.25;;;6.65;;
15595;SDS011;7898;48.658;9.068;2022-07-23T12:18:07;8.27;;;7.20;;
15595;SDS011;7898;48.658;9.068;2022-07-23T12:20:37;8.05;;;6.78;;
15595;SDS011;7898;48.658;9.068;2022-07-23T12:23:07;6.70;;;6.10;;
15595;SDS011;7898;48.658;9.068;2022-07-23T12:25:36;9.80;;;7.55;;
15595;SDS011;7898;48.658;9.068;2022-07-23T12:28:06;8.45;;;7.65;;
15595;SDS011;7898;48.658;9.068;2022-07-23T12:30:37;8.20;;;7.40;;
15595;SDS011;7898;48.658;9.068;2022-07-23T12:33:05;7.50;;;6.80;;
15595;SDS011;7898;48.658;9.068;2022-07-23T12:35:34;9.07;;;7.30;;
15595;SDS011;7898;48.658;9.068;2022-07-23T12:38:06;7.97;;;7.28;;
15595;SDS011;7898;48.658;9.068;2022-07-23T12:40:35;7.00;;;6.40;;
15595;SDS011;7898;48.658;9.068;2022-07-23T12:43:05;7.85;;;6.95;;
15595;SDS011;7898;48.658;9.068;2022-07-23T12:45:44;8.05;;;7.35;;
15595;SDS011;7898;48.658;9.068;2022-07-23T12:48:16;7.35;;;6.75;;
15595;SDS011;7898;48.658;9.068;2022-07-23T12:50:49;9.00;;;7.22;;
15595;SDS011;7898;48.658;9.068;2022-07-23T12:53:19;8.48;;;7.32;;
15595;SDS011;7898;48.658;9.068;2022-07-23T12:55:47;8.38;;;7.57;;
15595;SDS011;7898;48.658;9.068;2022-07-23T12:58:15;7.60;;;6.90;;
15595;SDS011;7898;48.658;9.068;2022-07-23T13:00:56;8.15;;;7.35;;
15595;SDS011;7898;48.658;9.068;2022-07-23T13:03:33;7.90;;;7.20;;
15595;SDS011;7898;48.658;9.068;2022-07-23T13:06:04;8.13;;;7.32;;
15595;SDS011;7898;48.658;9.068;2022-07-23T13:08:33;8.35;;;7.65;;
15595;SDS011;7898;48.658;9.068;2022-07-23T13:11:02;8.52;;;7.75;;
15595;SDS011;7898;48.658;9.068;2022-07-23T13:13:31;8.60;;;7.78;;
15595;SDS011;7898;48.658;9.068;2022-07-23T13:15:59;7.80;;;7.13;;
15595;SDS011;7898;48.658;9.068;2022-07-23T13:18:27;8.25;;;7.60;;
15595;SDS011;7898;48.658;9.068;2022-07-23T13:20:54;8.70;;;7.90;;
15595;SDS011;7898;48.658;9.068;2022-07-23T13:23:23;8.05;;;7.35;;
15595;SDS011;7898;48.658;9.068;2022-07-23T13:25:50;7.57;;;6.85;;
15595;SDS011;7898;48.658;9.068;2022-07-23T13:28:19;9.18;;;7.80;;
15595;SDS011;7898;48.658;9.068;2022-07-23T13:30:47;8.15;;;7.45;;
15595;SDS011;7898;48.658;9.068;2022-07-23T13:33:16;7.63;;;7.00;;
15595;SDS011;7898;48.658;9.068;2022-07-23T13:35:43;9.32;;;8.40;;
15595;SDS011;7898;48.658;9.068;2022-07-23T13:38:10;8.73;;;7.82;;
15595;SDS011;7898;48.658;9.068;2022-07-23T13:40:39;9.98;;;7.30;;
15595;SDS011;7898;48.658;9.068;2022-07-23T13:43:08;8.15;;;7.45;;
15595;SDS011;7898;48.658;9.068;2022-07-23T13:45:36;7.78;;;7.10;;
15595;SDS011;7898;48.658;9.068;2022-07-23T13:48:04;7.75;;;7.00;;
15595;SDS011;7898;48.658;9.068;2022-07-23T13:50:31;7.78;;;7.07;;
15595;SDS011;7898;48.658;9.068;2022-07-23T13:53:00;9.25;;;7.75;;
15595;SDS011;7898;48.658;9.068;2022-07-23T13:55:28;7.80;;;7.00;;
15595;SDS011;7898;48.658;9.068;2022-07-23T13:57:56;8.32;;;7.45;;
15595;SDS011;7898;48.658;9.068;2022-07-23T14:00:23;7.82;;;7.13;;
15595;SDS011;7898;48.658;9.068;2022-07-23T14:02:51;7.80;;;7.10;;
15595;SDS011;7898;48.658;9.068;2022-07-23T14:05:18;8.52;;;7.72;;
15595;SDS011;7898;48.658;9.068;2022-07-23T14:07:45;9.45;;;8.48;;
15595;SDS011;7898;48.658;9.068;2022-07-23T14:10:14;10.52;;;8.60;;
15595;SDS011;7898;48.658;9.068;2022-07-23T14:12:42;9.43;;;8.50;;
15595;SDS011;7898;48.658;9.068;2022-07-23T14:15:10;9.50;;;8.50;;
15595;SDS011;7898;48.658;9.068;2022-07-23T14:17:38;9.02;;;7.80;;
15595;SDS011;7898;48.658;9.068;2022-07-23T14:20:07;8.90;;;8.02;;
15595;SDS011;7898;48.658;9.068;2022-07-23T14:22:35;8.52;;;7.72;;
15595;SDS011;7898;48.658;9.068;2022-07-23T14:25:03;8.02;;;7.22;;
15595;SDS011;7898;48.658;9.068;2022-07-23T14:27:31;8.43;;;7.72;;
15595;SDS011;7898;48.658;9.068;2022-07-23T14:29:59;9.02;;;8.05;;
15595;SDS011;7898;48.658;9.068;2022-07-23T14:32:27;9.63;;;8.32;;
15595;SDS011;7898;48.658;9.068;2022-07-23T14:34:54;8.30;;;7.60;;
15595;SDS011;7898;48.658;9.068;2022-07-23T14:37:21;8.77;;;8.00;;
15595;SDS011;7898;48.658;9.068;2022-07-23T14:39:49;8.23;;;7.60;;
15595;SDS011;7898;48.658;9.068;2022-07-23T14:42:17;8.07;;;7.38;;
15595;SDS011;7898;48.658;9.068;2022-07-23T14:44:44;7.78;;;6.97;;
15595;SDS011;7898;48.658;9.068;2022-07-23T14:47:11;8.32;;;7.63;;
15595;SDS011;7898;48.658;9.068;2022-07-23T14:49:39;8.18;;;7.45;;
15595;SDS011;7898;48.658;9.068;2022-07-23T14:52:07;8.90;;;8.00;;
15595;SDS011;7898;48.658;9.068;2022-07-23T14:54:34;10.32;;;7.63;;
15595;SDS011;7898;48.658;9.068;2022-07-23T14:57:01;8.23;;;7.53;;
15595;SDS011;7898;48.658;9.068;2022-07-23T14:59:29;9.05;;;7.63;;
15595;SDS011;7898;48.658;9.068;2022-07-23T15:01:56;9.40;;;8.45;;
15595;SDS011;7898;48.658;9.068;2022-07-23T15:04:24;8.38;;;7.57;;
15595;SDS011;7898;48.658;9.068;2022-07-23T15:06:52;8.15;;;7.35;;
15595;SDS011;7898;48.658;9.068;2022-07-23T15:09:19;8.07;;;7.28;;
15595;SDS011;7898;48.658;9.068;2022-07-23T15:11:46;9.27;;;7.75;;
15595;SDS011;7898;48.658;9.068;2022-07-23T15:14:13;8.35;;;7.63;;